createdAt,value
2023-04-18T00:00:02.858Z,958.3687
2023-04-18T00:01:03.924Z,958.3604
2023-04-18T00:02:05.116Z,958.3557
2023-04-18T00:03:06.695Z,958.3391
2023-04-18T00:04:08.528Z,958.3270
2023-04-18T00:05:09.883Z,958.3274
2023-04-18T00:06:11.000Z,958.3209
2023-04-18T00:07:12.160Z,958.3417
2023-04-18T00:08:13.294Z,958.3213
2023-04-18T00:09:14.560Z,958.3282
2023-04-18T00:10:15.669Z,958.3218
2023-04-18T00:11:16.747Z,958.3483
2023-04-18T00:12:17.831Z,958.3630
2023-04-18T00:13:18.972Z,958.3409
2023-04-18T00:14:20.067Z,958.3495
2023-04-18T00:15:21.178Z,958.3726
2023-04-18T00:16:22.314Z,958.3618
2023-04-18T00:17:23.505Z,958.3722
2023-04-18T00:18:24.622Z,958.3748
2023-04-18T00:19:25.739Z,958.3804
2023-04-18T00:20:26.854Z,958.3652
2023-04-18T00:21:27.951Z,958.3600
2023-04-18T00:22:29.078Z,958.3561
2023-04-18T00:23:30.233Z,958.3396
2023-04-18T00:24:31.319Z,958.3430
2023-04-18T00:25:32.447Z,958.3557
2023-04-18T00:26:33.517Z,958.3483
2023-04-18T00:27:34.695Z,958.3487
2023-04-18T00:28:35.764Z,958.3431
2023-04-18T00:29:36.928Z,958.3282
2023-04-18T00:30:38.092Z,958.3069
2023-04-18T00:31:39.181Z,958.2948
2023-04-18T00:32:40.314Z,958.2787
2023-04-18T00:33:41.387Z,958.2826
2023-04-18T00:34:42.551Z,958.2748
2023-04-18T00:35:43.678Z,958.2770
2023-04-18T00:36:44.763Z,958.2852
2023-04-18T00:37:45.841Z,958.2917
2023-04-18T00:38:46.958Z,958.3000
2023-04-18T00:39:48.094Z,958.3091
2023-04-18T00:40:49.246Z,958.2943
2023-04-18T00:41:50.364Z,958.3030
2023-04-18T00:42:51.431Z,958.3091
2023-04-18T00:43:52.705Z,958.3152
2023-04-18T00:44:53.736Z,958.3122
2023-04-18T00:45:54.861Z,958.3047
2023-04-18T00:46:55.940Z,958.3047
2023-04-18T00:47:57.012Z,958.2861
2023-04-18T00:48:58.095Z,958.2783
2023-04-18T00:49:59.227Z,958.2809
2023-04-18T00:51:00.303Z,958.2800
2023-04-18T00:52:01.393Z,958.2783
2023-04-18T00:53:02.507Z,958.2643
2023-04-18T00:54:03.632Z,958.2709
2023-04-18T00:55:04.714Z,958.2596
2023-04-18T00:56:05.833Z,958.2504
2023-04-18T00:57:06.915Z,958.2539
2023-04-18T00:58:08.013Z,958.2522
2023-04-18T00:59:09.071Z,958.2496
2023-04-18T01:00:10.194Z,958.2408
2023-04-18T01:01:11.341Z,958.2361
2023-04-18T01:02:12.503Z,958.2382
2023-04-18T01:03:13.766Z,958.2282
2023-04-18T01:04:15.137Z,958.2261
2023-04-18T01:05:16.646Z,958.2165
2023-04-18T01:06:17.770Z,958.1965
2023-04-18T01:07:18.891Z,958.2004
2023-04-18T01:08:19.965Z,958.1891
2023-04-18T01:09:21.087Z,958.1891
2023-04-18T01:10:22.223Z,958.1708
2023-04-18T01:11:23.510Z,958.1661
2023-04-18T01:12:24.584Z,958.1435
2023-04-18T01:13:25.724Z,958.1439
2023-04-18T01:14:26.773Z,958.1457
2023-04-18T01:15:27.921Z,958.1500
2023-04-18T01:16:29.032Z,958.1282
2023-04-18T01:17:30.219Z,958.1378
2023-04-18T01:18:31.362Z,958.1235
2023-04-18T01:19:32.717Z,958.1287
2023-04-18T01:20:33.873Z,958.1252
2023-04-18T01:21:35.023Z,958.1235
2023-04-18T01:22:36.166Z,958.1143
2023-04-18T01:23:37.283Z,958.1108
2023-04-18T01:24:38.377Z,958.1078
2023-04-18T01:25:39.626Z,958.0965
2023-04-18T01:26:40.665Z,958.0761
2023-04-18T01:27:41.824Z,958.0761
2023-04-18T01:28:42.925Z,958.0543
2023-04-18T01:29:44.016Z,958.0409
2023-04-18T01:30:45.224Z,958.0330
2023-04-18T01:31:46.431Z,958.0153
2023-04-18T01:32:47.573Z,958.0165
2023-04-18T01:33:48.669Z,958.0000
2023-04-18T01:34:49.765Z,957.9908
2023-04-18T01:35:51.099Z,957.9765
2023-04-18T01:36:52.150Z,957.9822
2023-04-18T01:37:53.215Z,957.9839
2023-04-18T01:38:54.348Z,957.9752
2023-04-18T01:39:55.510Z,957.9453
2023-04-18T01:40:56.603Z,957.9330
2023-04-18T01:41:57.862Z,957.9313
2023-04-18T01:42:58.942Z,957.9165
2023-04-18T01:44:00.016Z,957.9026
2023-04-18T01:45:01.140Z,957.8822
2023-04-18T01:46:02.301Z,957.8870
2023-04-18T01:47:03.440Z,957.8813
2023-04-18T01:48:04.552Z,957.8853
2023-04-18T01:49:05.640Z,957.8682
2023-04-18T01:50:06.743Z,957.8374
2023-04-18T01:51:07.852Z,957.8409
2023-04-18T01:52:09.020Z,957.8357
2023-04-18T01:53:10.465Z,957.8356
2023-04-18T01:54:11.823Z,957.8270
2023-04-18T01:55:13.442Z,957.8122
2023-04-18T01:56:14.535Z,957.8126
2023-04-18T01:57:15.646Z,957.8152
2023-04-18T01:58:16.748Z,957.8074
2023-04-18T01:59:17.955Z,957.8126
2023-04-18T02:00:19.109Z,957.8030
2023-04-18T02:01:20.340Z,957.8065
2023-04-18T02:02:21.768Z,957.8052
2023-04-18T02:03:23.273Z,957.8022
2023-04-18T02:04:24.484Z,957.7917
2023-04-18T02:05:25.601Z,957.7748
2023-04-18T02:06:26.995Z,957.7678
2023-04-18T02:07:28.151Z,957.7609
2023-04-18T02:08:29.272Z,957.7670
2023-04-18T02:09:30.388Z,957.7587
2023-04-18T02:10:31.523Z,957.7465
2023-04-18T02:11:32.673Z,957.7374
2023-04-18T02:12:33.753Z,957.7326
2023-04-18T02:13:35.033Z,957.7244
2023-04-18T02:14:36.385Z,957.7148
2023-04-18T02:15:37.549Z,957.7156
2023-04-18T02:16:38.708Z,957.7057
2023-04-18T02:17:39.799Z,957.6974
2023-04-18T02:18:40.960Z,957.6896
2023-04-18T02:19:42.086Z,957.6791
2023-04-18T02:20:43.212Z,957.6818
2023-04-18T02:21:44.324Z,957.6861
2023-04-18T02:22:45.481Z,957.6978
2023-04-18T02:23:46.600Z,957.6961
2023-04-18T02:24:47.707Z,957.6982
2023-04-18T02:25:48.804Z,957.6939
2023-04-18T02:26:49.927Z,957.6926
2023-04-18T02:27:51.034Z,957.6882
2023-04-18T02:28:52.266Z,957.6865
2023-04-18T02:29:53.442Z,957.6578
2023-04-18T02:30:54.576Z,957.6422
2023-04-18T02:31:55.785Z,957.6478
2023-04-18T02:32:56.977Z,957.6435
2023-04-18T02:33:59.219Z,957.6474
2023-04-18T02:35:00.317Z,957.6443
2023-04-18T02:36:01.426Z,957.6496
2023-04-18T02:37:02.576Z,957.6548
2023-04-18T02:38:03.807Z,957.6583
2023-04-18T02:39:04.936Z,957.6526
2023-04-18T02:40:06.061Z,957.6448
2023-04-18T02:41:07.203Z,957.6448
2023-04-18T02:42:08.335Z,957.6387
2023-04-18T02:43:09.510Z,957.6387
2023-04-18T02:44:10.626Z,957.6422
2023-04-18T02:45:11.856Z,957.6439
2023-04-18T02:46:13.041Z,957.6326
2023-04-18T02:47:14.188Z,957.6152
2023-04-18T02:48:15.424Z,957.6204
2023-04-18T02:49:16.595Z,957.6200
2023-04-18T02:50:17.673Z,957.6208
2023-04-18T02:51:18.908Z,957.6296
2023-04-18T02:52:20.047Z,957.6343
2023-04-18T02:53:21.211Z,957.6374
2023-04-18T02:54:22.307Z,957.6418
2023-04-18T02:55:23.455Z,957.6365
2023-04-18T02:56:24.539Z,957.6322
2023-04-18T02:57:25.643Z,957.6187
2023-04-18T02:58:26.784Z,957.6161
2023-04-18T02:59:27.924Z,957.6204
2023-04-18T03:00:29.047Z,957.6126
2023-04-18T03:01:30.199Z,957.6043
2023-04-18T03:02:31.454Z,957.5978
2023-04-18T03:03:32.742Z,957.5944
2023-04-18T03:04:33.945Z,957.5991
2023-04-18T03:05:35.159Z,957.5917
2023-04-18T03:06:36.288Z,957.5813
2023-04-18T03:07:37.428Z,957.5765
2023-04-18T03:08:38.533Z,957.5782
2023-04-18T03:09:39.674Z,957.5761
2023-04-18T03:10:40.812Z,957.5565
2023-04-18T03:11:42.104Z,957.5457
2023-04-18T03:12:43.249Z,957.5374
2023-04-18T03:13:44.410Z,957.5257
2023-04-18T03:14:45.548Z,957.5200
2023-04-18T03:15:46.708Z,957.5118
2023-04-18T03:16:47.812Z,957.5074
2023-04-18T03:17:49.136Z,957.4965
2023-04-18T03:18:50.280Z,957.4857
2023-04-18T03:19:51.459Z,957.4818
2023-04-18T03:20:52.653Z,957.4874
2023-04-18T03:21:53.798Z,957.4847
2023-04-18T03:22:55.022Z,957.4796
2023-04-18T03:23:56.120Z,957.4769
2023-04-18T03:24:57.230Z,957.4808
2023-04-18T03:25:58.346Z,957.4882
2023-04-18T03:26:59.532Z,957.4839
2023-04-18T03:28:00.706Z,957.4857
2023-04-18T03:29:01.945Z,957.4847
2023-04-18T03:30:03.139Z,957.4869
2023-04-18T03:31:04.389Z,957.4882
2023-04-18T03:32:05.533Z,957.4913
2023-04-18T03:33:06.625Z,957.4891
2023-04-18T03:34:07.800Z,957.4922
2023-04-18T03:35:08.967Z,957.4957
2023-04-18T03:36:10.095Z,957.4918
2023-04-18T03:37:11.204Z,957.4847
2023-04-18T03:38:12.375Z,957.4778
2023-04-18T03:39:13.485Z,957.4730
2023-04-18T03:40:14.640Z,957.4791
2023-04-18T03:41:15.765Z,957.4818
2023-04-18T03:42:16.923Z,957.4826
2023-04-18T03:43:18.076Z,957.4800
2023-04-18T03:44:19.250Z,957.4774
2023-04-18T03:45:20.425Z,957.4826
2023-04-18T03:46:21.616Z,957.4843
2023-04-18T03:47:22.749Z,957.4835
2023-04-18T03:48:23.915Z,957.4704
2023-04-18T03:49:25.036Z,957.4635
2023-04-18T03:50:26.265Z,957.4583
2023-04-18T03:51:27.363Z,957.4613
2023-04-18T03:52:29.830Z,957.4553
2023-04-18T03:53:28.775Z,957.4528
2023-04-18T03:54:29.916Z,957.4518
2023-04-18T03:55:31.065Z,957.4391
2023-04-18T03:56:32.182Z,957.4330
2023-04-18T03:57:33.277Z,957.4326
2023-04-18T03:58:34.403Z,957.4404
2023-04-18T03:59:35.529Z,957.4318
2023-04-18T04:00:36.694Z,957.4308
2023-04-18T04:01:37.909Z,957.4365
2023-04-18T04:02:39.149Z,957.4404
2023-04-18T04:03:40.409Z,957.4400
2023-04-18T04:04:41.913Z,957.4308
2023-04-18T04:05:43.044Z,957.4247
2023-04-18T04:06:44.184Z,957.4313
2023-04-18T04:07:45.378Z,957.4282
2023-04-18T04:08:46.565Z,957.4261
2023-04-18T04:09:47.681Z,957.4152
2023-04-18T04:10:48.843Z,957.4239
2023-04-18T04:11:50.008Z,957.4265
2023-04-18T04:12:51.131Z,957.4191
2023-04-18T04:13:52.282Z,957.4187
2023-04-18T04:14:53.457Z,957.4247
2023-04-18T04:15:54.620Z,957.4269
2023-04-18T04:16:55.781Z,957.4322
2023-04-18T04:17:57.080Z,957.4357
2023-04-18T04:18:58.261Z,957.4361
2023-04-18T04:19:59.372Z,957.4461
2023-04-18T04:21:00.531Z,957.4404
2023-04-18T04:22:01.610Z,957.4553
2023-04-18T04:23:02.796Z,957.4617
2023-04-18T04:24:03.952Z,957.4752
2023-04-18T04:25:05.083Z,957.4818
2023-04-18T04:26:06.202Z,957.4843
2023-04-18T04:27:07.377Z,957.4908
2023-04-18T04:28:08.591Z,957.4922
2023-04-18T04:29:09.716Z,957.4904
2023-04-18T04:30:13.308Z,957.4900
2023-04-18T04:31:12.133Z,957.4863
2023-04-18T04:32:13.324Z,957.4939
2023-04-18T04:33:14.535Z,957.5026
2023-04-18T04:34:15.958Z,957.5057
2023-04-18T04:35:17.311Z,957.5153
2023-04-18T04:36:19.006Z,957.5153
2023-04-18T04:37:20.245Z,957.5165
2023-04-18T04:38:21.440Z,957.5209
2023-04-18T04:39:22.618Z,957.5244
2023-04-18T04:40:23.733Z,957.5300
2023-04-18T04:41:24.910Z,957.5387
2023-04-18T04:42:26.052Z,957.5547
2023-04-18T04:43:27.208Z,957.5661
2023-04-18T04:44:28.364Z,957.5726
2023-04-18T04:45:29.569Z,957.5831
2023-04-18T04:46:30.684Z,957.6017
2023-04-18T04:47:31.947Z,957.6135
2023-04-18T04:48:33.212Z,957.6213
2023-04-18T04:49:34.412Z,957.6257
2023-04-18T04:50:35.583Z,957.6230
2023-04-18T04:51:36.804Z,957.6370
2023-04-18T04:52:37.990Z,957.6365
2023-04-18T04:53:39.376Z,957.6396
2023-04-18T04:54:40.800Z,957.6470
2023-04-18T04:55:42.007Z,957.6457
2023-04-18T04:56:43.169Z,957.6418
2023-04-18T04:57:44.322Z,957.6426
2023-04-18T04:58:45.445Z,957.6478
2023-04-18T04:59:46.571Z,957.6565
2023-04-18T05:00:47.733Z,957.6608
2023-04-18T05:01:48.994Z,957.6661
2023-04-18T05:02:50.520Z,957.6708
2023-04-18T05:03:51.984Z,957.6713
2023-04-18T05:04:53.188Z,957.6700
2023-04-18T05:05:54.361Z,957.6687
2023-04-18T05:06:55.440Z,957.6769
2023-04-18T05:07:56.593Z,957.6782
2023-04-18T05:08:57.819Z,957.6909
2023-04-18T05:09:58.985Z,957.6961
2023-04-18T05:11:00.168Z,957.7018
2023-04-18T05:12:01.421Z,957.7087
2023-04-18T05:13:02.588Z,957.7039
2023-04-18T05:14:03.781Z,957.7026
2023-04-18T05:15:04.934Z,957.7018
2023-04-18T05:16:06.154Z,957.7018
2023-04-18T05:17:07.354Z,957.7048
2023-04-18T05:18:08.632Z,957.7057
2023-04-18T05:19:09.819Z,957.7156
2023-04-18T05:20:10.956Z,957.7230
2023-04-18T05:21:12.182Z,957.7265
2023-04-18T05:22:13.320Z,957.7313
2023-04-18T05:23:14.486Z,957.7408
2023-04-18T05:24:15.955Z,957.7439
2023-04-18T05:25:17.374Z,957.7469
2023-04-18T05:26:18.502Z,957.7391
2023-04-18T05:27:19.637Z,957.7457
2023-04-18T05:28:20.749Z,957.7430
2023-04-18T05:29:21.950Z,957.7396
2023-04-18T05:30:23.050Z,957.7378
2023-04-18T05:31:24.194Z,957.7382
2023-04-18T05:32:25.366Z,957.7439
2023-04-18T05:33:26.466Z,957.7513
2023-04-18T05:34:27.651Z,957.7531
2023-04-18T05:35:28.769Z,957.7561
2023-04-18T05:36:29.876Z,957.7635
2023-04-18T05:37:31.047Z,957.7813
2023-04-18T05:38:32.216Z,957.7869
2023-04-18T05:39:33.373Z,957.7861
2023-04-18T05:40:34.471Z,957.7957
2023-04-18T05:41:35.645Z,957.7991
2023-04-18T05:42:36.762Z,957.8109
2023-04-18T05:43:38.001Z,957.8100
2023-04-18T05:44:39.097Z,957.8165
2023-04-18T05:45:40.277Z,957.8265
2023-04-18T05:46:41.524Z,957.8396
2023-04-18T05:47:42.740Z,957.8465
2023-04-18T05:48:43.913Z,957.8431
2023-04-18T05:49:45.029Z,957.8370
2023-04-18T05:50:46.228Z,957.8322
2023-04-18T05:51:47.367Z,957.8274
2023-04-18T05:52:48.473Z,957.8292
2023-04-18T05:53:49.640Z,957.8270
2023-04-18T05:54:50.766Z,957.8287
2023-04-18T05:55:51.889Z,957.8357
2023-04-18T05:56:53.048Z,957.8357
2023-04-18T05:57:54.219Z,957.8405
2023-04-18T05:58:55.344Z,957.8426
2023-04-18T05:59:56.487Z,957.8452
2023-04-18T06:00:57.620Z,957.8491
2023-04-18T06:01:58.805Z,957.8535
2023-04-18T06:03:00.150Z,957.8591
2023-04-18T06:04:01.814Z,957.8691
2023-04-18T06:05:03.319Z,957.8743
2023-04-18T06:06:04.762Z,957.8800
2023-04-18T06:07:05.909Z,957.8887
2023-04-18T06:08:07.151Z,957.8917
2023-04-18T06:09:08.244Z,957.8931
2023-04-18T06:10:09.386Z,957.8961
2023-04-18T06:11:10.522Z,957.8957
2023-04-18T06:12:11.874Z,957.8996
2023-04-18T06:13:13.175Z,957.9017
2023-04-18T06:14:14.442Z,957.9109
2023-04-18T06:15:15.682Z,957.9113
2023-04-18T06:16:16.957Z,957.9291
2023-04-18T06:17:18.154Z,957.9448
2023-04-18T06:18:19.319Z,957.9626
2023-04-18T06:19:20.546Z,957.9687
2023-04-18T06:20:21.695Z,957.9796
2023-04-18T06:21:22.880Z,957.9787
2023-04-18T06:22:23.995Z,957.9782
2023-04-18T06:23:25.185Z,957.9900
2023-04-18T06:24:26.380Z,957.9948
2023-04-18T06:25:27.536Z,957.9961
2023-04-18T06:26:28.748Z,958.0061
2023-04-18T06:27:31.922Z,958.0074
2023-04-18T06:28:30.627Z,958.0037
2023-04-18T06:29:31.780Z,958.0104
2023-04-18T06:30:32.913Z,958.0082
2023-04-18T06:31:34.054Z,958.0087
2023-04-18T06:32:35.304Z,958.0082
2023-04-18T06:33:36.700Z,958.0096
2023-04-18T06:34:37.870Z,958.0092
2023-04-18T06:35:39.079Z,958.0082
2023-04-18T06:36:40.209Z,958.0074
2023-04-18T06:37:41.348Z,958.0004
2023-04-18T06:38:42.478Z,957.9939
2023-04-18T06:39:43.605Z,957.9887
2023-04-18T06:40:44.806Z,957.9822
2023-04-18T06:41:45.929Z,957.9952
2023-04-18T06:42:47.084Z,958.0018
2023-04-18T06:44:02.109Z,958.0122
2023-04-18T06:44:50.029Z,958.0238
2023-04-18T06:45:51.207Z,958.0317
2023-04-18T06:46:52.377Z,958.0326
2023-04-18T06:47:53.560Z,958.0330
2023-04-18T06:48:54.703Z,958.0326
2023-04-18T06:49:55.861Z,958.0370
2023-04-18T06:50:56.992Z,958.0391
2023-04-18T06:51:58.105Z,958.0461
2023-04-18T06:52:59.352Z,958.0439
2023-04-18T06:54:00.466Z,958.0439
2023-04-18T06:55:01.670Z,958.0435
2023-04-18T06:56:02.916Z,958.0508
2023-04-18T06:57:04.092Z,958.0535
2023-04-18T06:58:05.263Z,958.0491
2023-04-18T06:59:06.501Z,958.0461
2023-04-18T07:00:07.687Z,958.0508
2023-04-18T07:01:08.925Z,958.0478
2023-04-18T07:02:10.379Z,958.0508
2023-04-18T07:03:11.920Z,958.0408
2023-04-18T07:04:13.655Z,958.0491
2023-04-18T07:05:15.395Z,958.0552
2023-04-18T07:06:16.576Z,958.0635
2023-04-18T07:07:17.766Z,958.0674
2023-04-18T07:08:18.938Z,958.0761
2023-04-18T07:09:20.179Z,958.0782
2023-04-18T07:10:21.354Z,958.0765
2023-04-18T07:11:22.521Z,958.0757
2023-04-18T07:12:23.743Z,958.0778
2023-04-18T07:13:24.881Z,958.0822
2023-04-18T07:14:26.118Z,958.0804
2023-04-18T07:15:27.305Z,958.0839
2023-04-18T07:16:28.552Z,958.0844
2023-04-18T07:17:29.766Z,958.0731
2023-04-18T07:18:37.864Z,958.0709
2023-04-18T07:19:32.796Z,958.0705
2023-04-18T07:20:34.032Z,958.0596
2023-04-18T07:21:35.233Z,958.0561
2023-04-18T07:22:36.419Z,958.0478
2023-04-18T07:23:37.596Z,958.0322
2023-04-18T07:24:38.796Z,958.0178
2023-04-18T07:25:40.037Z,958.0209
2023-04-18T07:26:41.206Z,958.0361
2023-04-18T07:27:42.404Z,958.0430
2023-04-18T07:28:43.632Z,958.0478
2023-04-18T07:29:44.782Z,958.0430
2023-04-18T07:30:45.949Z,958.0513
2023-04-18T07:31:47.112Z,958.0518
2023-04-18T07:32:48.331Z,958.0561
2023-04-18T07:33:49.487Z,958.0696
2023-04-18T07:34:50.693Z,958.0700
2023-04-18T07:35:51.847Z,958.0809
2023-04-18T07:36:53.044Z,958.0852
2023-04-18T07:37:54.219Z,958.0883
2023-04-18T07:38:55.381Z,958.0987
2023-04-18T07:39:56.578Z,958.1052
2023-04-18T07:40:57.725Z,958.1087
2023-04-18T07:41:58.942Z,958.1108
2023-04-18T07:43:00.146Z,958.1222
2023-04-18T07:44:01.308Z,958.1165
2023-04-18T07:45:02.450Z,958.1100
2023-04-18T07:46:03.679Z,958.1135
2023-04-18T07:47:04.881Z,958.1174
2023-04-18T07:48:06.060Z,958.1278
2023-04-18T07:49:07.186Z,958.1396
2023-04-18T07:50:08.369Z,958.1539
2023-04-18T07:51:09.569Z,958.1539
2023-04-18T07:52:10.753Z,958.1548
2023-04-18T07:53:11.931Z,958.1578
2023-04-18T07:54:13.139Z,958.1569
2023-04-18T07:55:14.304Z,958.1661
2023-04-18T07:56:15.536Z,958.1691
2023-04-18T07:57:16.626Z,958.1808
2023-04-18T07:58:17.788Z,958.1904
2023-04-18T07:59:18.986Z,958.2074
2023-04-18T08:00:20.118Z,958.2204
2023-04-18T08:01:21.352Z,958.2352
2023-04-18T08:02:22.596Z,958.2491
2023-04-18T08:03:24.035Z,958.2613
2023-04-18T08:04:27.575Z,958.2748
2023-04-18T08:05:27.770Z,958.2873
2023-04-18T08:06:29.024Z,958.2822
2023-04-18T08:07:30.176Z,958.2844
2023-04-18T08:08:31.322Z,958.2896
2023-04-18T08:09:32.483Z,958.2965
2023-04-18T08:10:33.714Z,958.2848
2023-04-18T08:11:35.004Z,958.2826
2023-04-18T08:12:36.157Z,958.2787
2023-04-18T08:13:37.343Z,958.2744
2023-04-18T08:14:38.523Z,958.2665
2023-04-18T08:15:39.811Z,958.2757
2023-04-18T08:16:41.036Z,958.2778
2023-04-18T08:17:42.315Z,958.2696
2023-04-18T08:18:43.505Z,958.2426
2023-04-18T08:19:44.718Z,958.2587
2023-04-18T08:20:45.886Z,958.2648
2023-04-18T08:21:47.028Z,958.2578
2023-04-18T08:23:04.843Z,958.2400
2023-04-18T08:23:49.990Z,958.2276
2023-04-18T08:25:03.860Z,958.2200
2023-04-18T08:25:52.973Z,958.2119
2023-04-18T08:26:54.236Z,958.2022
2023-04-18T08:27:55.426Z,958.2074
2023-04-18T08:28:56.597Z,958.2122
2023-04-18T08:29:57.771Z,958.2226
2023-04-18T08:30:58.939Z,958.2347
2023-04-18T08:32:00.162Z,958.2361
2023-04-18T08:33:01.581Z,958.2391
2023-04-18T08:34:04.528Z,958.2452
2023-04-18T08:35:03.782Z,958.2614
2023-04-18T08:36:04.925Z,958.2574
2023-04-18T08:37:06.073Z,958.2692
2023-04-18T08:38:07.325Z,958.2657
2023-04-18T08:39:08.514Z,958.2622
2023-04-18T08:40:09.723Z,958.2700
2023-04-18T08:41:10.866Z,958.2709
2023-04-18T08:42:12.069Z,958.2826
2023-04-18T08:43:13.258Z,958.2896
2023-04-18T08:44:14.602Z,958.3039
2023-04-18T08:45:16.004Z,958.3091
2023-04-18T08:46:17.242Z,958.3139
2023-04-18T08:47:18.460Z,958.3061
2023-04-18T08:48:19.840Z,958.3096
2023-04-18T08:49:21.036Z,958.3065
2023-04-18T08:50:22.200Z,958.3192
2023-04-18T08:51:23.339Z,958.3335
2023-04-18T08:52:24.547Z,958.3448
2023-04-18T08:53:25.725Z,958.3674
2023-04-18T08:54:27.488Z,958.3774
2023-04-18T08:55:28.813Z,958.3835
2023-04-18T08:56:29.990Z,958.3904
2023-04-18T08:57:31.211Z,958.3865
2023-04-18T08:58:32.447Z,958.3878
2023-04-18T08:59:33.633Z,958.4052
2023-04-18T09:00:34.739Z,958.4178
2023-04-18T09:01:35.942Z,958.4191
2023-04-18T09:02:37.195Z,958.4165
2023-04-18T09:03:38.567Z,958.4243
2023-04-18T09:04:39.858Z,958.4187
2023-04-18T09:05:41.000Z,958.4169
2023-04-18T09:06:42.166Z,958.4200
2023-04-18T09:07:43.321Z,958.4257
2023-04-18T09:08:44.519Z,958.4169
2023-04-18T09:09:45.662Z,958.4282
2023-04-18T09:10:46.922Z,958.4243
2023-04-18T09:11:48.085Z,958.4126
2023-04-18T09:12:49.302Z,958.3957
2023-04-18T09:13:50.542Z,958.3939
2023-04-18T09:14:51.683Z,958.3900
2023-04-18T09:15:52.917Z,958.3813
2023-04-18T09:16:54.068Z,958.3813
2023-04-18T09:17:55.291Z,958.3678
2023-04-18T09:18:56.459Z,958.3657
2023-04-18T09:19:57.590Z,958.3565
2023-04-18T09:20:58.784Z,958.3517
2023-04-18T09:21:59.946Z,958.3448
2023-04-18T09:23:01.109Z,958.3439
2023-04-18T09:24:02.297Z,958.3530
2023-04-18T09:25:03.483Z,958.3435
2023-04-18T09:26:04.663Z,958.3413
2023-04-18T09:27:05.794Z,958.3235
2023-04-18T09:28:06.951Z,958.3322
2023-04-18T09:29:08.150Z,958.3231
2023-04-18T09:30:09.325Z,958.3265
2023-04-18T09:31:10.474Z,958.3231
2023-04-18T09:32:11.608Z,958.3309
2023-04-18T09:33:12.734Z,958.3422
2023-04-18T09:34:14.134Z,958.3444
2023-04-18T09:35:15.670Z,958.3600
2023-04-18T09:36:16.887Z,958.3613
2023-04-18T09:37:17.993Z,958.3778
2023-04-18T09:38:19.187Z,958.3630
2023-04-18T09:39:20.297Z,958.3596
2023-04-18T09:40:21.439Z,958.3752
2023-04-18T09:41:22.575Z,958.3839
2023-04-18T09:42:24.083Z,958.3809
2023-04-18T09:43:25.776Z,958.3943
2023-04-18T09:44:26.937Z,958.3896
2023-04-18T09:45:28.198Z,958.3983
2023-04-18T09:46:29.372Z,958.4126
2023-04-18T09:47:30.540Z,958.4222
2023-04-18T09:48:31.675Z,958.4187
2023-04-18T09:49:32.845Z,958.4313
2023-04-18T09:50:34.004Z,958.4257
2023-04-18T09:51:35.164Z,958.4200
2023-04-18T09:52:36.283Z,958.4139
2023-04-18T09:53:37.417Z,958.4100
2023-04-18T09:54:38.551Z,958.4296
2023-04-18T09:55:39.714Z,958.4287
2023-04-18T09:56:40.841Z,958.4139
2023-04-18T09:57:41.967Z,958.4113
2023-04-18T09:58:43.105Z,958.4235
2023-04-18T09:59:44.328Z,958.4230
2023-04-18T10:00:46.901Z,958.4261
2023-04-18T10:01:45.829Z,958.4159
2023-04-18T10:02:47.033Z,958.4035
2023-04-18T10:03:48.471Z,958.4135
2023-04-18T10:04:50.035Z,958.4087
2023-04-18T10:05:51.312Z,958.4204
2023-04-18T10:06:52.476Z,958.4287
2023-04-18T10:07:53.607Z,958.4169
2023-04-18T10:08:54.735Z,958.4287
2023-04-18T10:09:55.879Z,958.4291
2023-04-18T10:10:56.990Z,958.4278
2023-04-18T10:11:58.113Z,958.4078
2023-04-18T10:12:59.217Z,958.3878
2023-04-18T10:14:00.328Z,958.3987
2023-04-18T10:15:02.150Z,958.4005
2023-04-18T10:16:03.288Z,958.4061
2023-04-18T10:17:04.410Z,958.4034
2023-04-18T10:18:06.446Z,958.4222
2023-04-18T10:19:07.963Z,958.4247
2023-04-18T10:20:09.111Z,958.4522
2023-04-18T10:21:10.229Z,958.4461
2023-04-18T10:22:11.410Z,958.4492
2023-04-18T10:23:12.625Z,958.4413
2023-04-18T10:24:13.874Z,958.4435
2023-04-18T10:25:15.499Z,958.4509
2023-04-18T10:26:16.814Z,958.4443
2023-04-18T10:27:18.030Z,958.4487
2023-04-18T10:28:19.161Z,958.4382
2023-04-18T10:29:20.298Z,958.4422
2023-04-18T10:30:21.534Z,958.4448
2023-04-18T10:31:22.857Z,958.4561
2023-04-18T10:32:24.129Z,958.4635
2023-04-18T10:33:30.894Z,958.4857
2023-04-18T10:34:26.945Z,958.4667
2023-04-18T10:35:28.065Z,958.4722
2023-04-18T10:36:29.275Z,958.4504
2023-04-18T10:37:30.308Z,958.4426
2023-04-18T10:38:31.418Z,958.4308
2023-04-18T10:39:32.556Z,958.4135
2023-04-18T10:40:33.733Z,958.4208
2023-04-18T10:41:34.843Z,958.4370
2023-04-18T10:42:35.964Z,958.4287
2023-04-18T10:43:37.117Z,958.4204
2023-04-18T10:44:38.280Z,958.4183
2023-04-18T10:45:39.411Z,958.4165
2023-04-18T10:46:40.597Z,958.4009
2023-04-18T10:47:41.908Z,958.3817
2023-04-18T10:48:43.133Z,958.3652
2023-04-18T10:49:44.268Z,958.3700
2023-04-18T10:50:45.373Z,958.3700
2023-04-18T10:51:46.471Z,958.3508
2023-04-18T10:52:47.635Z,958.3413
2023-04-18T10:53:48.760Z,958.3178
2023-04-18T10:54:49.920Z,958.3052
2023-04-18T10:55:51.052Z,958.2704
2023-04-18T10:56:52.194Z,958.2704
2023-04-18T10:57:53.302Z,958.2696
2023-04-18T10:58:54.484Z,958.2622
2023-04-18T10:59:55.542Z,958.2631
2023-04-18T11:00:56.805Z,958.2622
2023-04-18T11:01:57.988Z,958.2696
2023-04-18T11:02:59.209Z,958.2791
2023-04-18T11:04:00.517Z,958.2565
2023-04-18T11:05:01.884Z,958.2609
2023-04-18T11:06:03.003Z,958.2648
2023-04-18T11:07:04.734Z,958.2756
2023-04-18T11:08:05.824Z,958.2574
2023-04-18T11:09:06.953Z,958.2491
2023-04-18T11:10:08.007Z,958.2461
2023-04-18T11:11:09.143Z,958.2117
2023-04-18T11:12:10.263Z,958.2170
2023-04-18T11:13:11.379Z,958.2191
2023-04-18T11:14:12.602Z,958.2248
2023-04-18T11:15:14.523Z,958.2122
2023-04-18T11:16:15.926Z,958.2130
2023-04-18T11:17:17.060Z,958.2148
2023-04-18T11:18:18.183Z,958.2065
2023-04-18T11:19:19.326Z,958.2078
2023-04-18T11:20:20.418Z,958.2156
2023-04-18T11:21:21.567Z,958.2291
2023-04-18T11:22:22.687Z,958.2343
2023-04-18T11:23:23.839Z,958.2244
2023-04-18T11:24:24.937Z,958.2048
2023-04-18T11:25:26.078Z,958.2083
2023-04-18T11:26:27.218Z,958.2017
2023-04-18T11:27:28.345Z,958.2018
2023-04-18T11:28:29.460Z,958.1804
2023-04-18T11:29:30.574Z,958.1939
2023-04-18T11:30:31.927Z,958.1782
2023-04-18T11:31:33.060Z,958.1769
2023-04-18T11:32:34.589Z,958.1839
2023-04-18T11:33:35.786Z,958.1822
2023-04-18T11:34:36.852Z,958.1900
2023-04-18T11:35:37.997Z,958.2100
2023-04-18T11:36:39.155Z,958.2087
2023-04-18T11:37:40.326Z,958.2178
2023-04-18T11:38:41.714Z,958.2291
2023-04-18T11:39:42.906Z,958.2104
2023-04-18T11:40:44.072Z,958.2152
2023-04-18T11:41:45.262Z,958.2061
2023-04-18T11:42:46.414Z,958.2053
2023-04-18T11:43:47.578Z,958.1992
2023-04-18T11:44:48.698Z,958.2083
2023-04-18T11:45:49.939Z,958.2174
2023-04-18T11:46:51.146Z,958.2282
2023-04-18T11:47:52.349Z,958.2287
2023-04-18T11:48:53.496Z,958.2361
2023-04-18T11:49:56.907Z,958.2113
2023-04-18T11:50:55.603Z,958.2346
2023-04-18T11:51:56.744Z,958.2565
2023-04-18T11:52:57.884Z,958.2339
2023-04-18T11:53:59.031Z,958.2408
2023-04-18T11:55:00.182Z,958.2400
2023-04-18T11:56:01.266Z,958.2430
2023-04-18T11:57:02.378Z,958.2365
2023-04-18T11:58:03.512Z,958.2296